sensor_id;sensor_type;location;lat;lon;timestamp;P1;durP1;ratioP1;P2;durP2;ratioP2
8046;SDS011;67150;42.516;23.358;2023-02-28T00:02:34;1.23;;;1.13;;
8046;SDS011;67150;42.516;23.358;2023-02-28T00:05:22;2.07;;;1.27;;
8046;SDS011;67150;42.516;23.358;2023-02-28T00:08:10;1.30;;;1.20;;
8046;SDS011;67150;42.516;23.358;2023-02-28T00:11:00;1.37;;;1.23;;
8046;SDS011;67150;42.516;23.358;2023-02-28T00:13:46;1.50;;;1.30;;
8046;SDS011;67150;42.516;23.358;2023-02-28T00:16:32;1.97;;;1.30;;
8046;SDS011;67150;42.516;23.358;2023-02-28T00:19:18;1.63;;;1.20;;
8046;SDS011;67150;42.516;23.358;2023-02-28T00:22:05;2.10;;;1.20;;
8046;SDS011;67150;42.516;23.358;2023-02-28T00:24:51;1.30;;;1.20;;
8046;SDS011;67150;42.516;23.358;2023-02-28T00:27:38;2.00;;;1.37;;
8046;SDS011;67150;42.516;23.358;2023-02-28T00:30:25;2.17;;;1.40;;
8046;SDS011;67150;42.516;23.358;2023-02-28T00:33:10;2.40;;;1.30;;
8046;SDS011;67150;42.516;23.358;2023-02-28T00:36:04;2.33;;;1.50;;
8046;SDS011;67150;42.516;23.358;2023-02-28T00:38:53;1.37;;;1.20;;
8046;SDS011;67150;42.516;23.358;2023-02-28T00:41:39;1.60;;;1.47;;
8046;SDS011;67150;42.516;23.358;2023-02-28T00:44:25;4.97;;;1.67;;
8046;SDS011;67150;42.516;23.358;2023-02-28T00:47:11;2.90;;;1.50;;
8046;SDS011;67150;42.516;23.358;2023-02-28T00:49:58;2.83;;;1.40;;
8046;SDS011;67150;42.516;23.358;2023-02-28T00:52:44;1.80;;;1.20;;
8046;SDS011;67150;42.516;23.358;2023-02-28T00:55:32;6.37;;;1.60;;
8046;SDS011;67150;42.516;23.358;2023-02-28T00:58:18;1.97;;;1.30;;
8046;SDS011;67150;42.516;23.358;2023-02-28T01:01:04;1.87;;;1.37;;
8046;SDS011;67150;42.516;23.358;2023-02-28T01:03:50;3.17;;;1.60;;
8046;SDS011;67150;42.516;23.358;2023-02-28T01:06:36;5.23;;;1.43;;
8046;SDS011;67150;42.516;23.358;2023-02-28T01:09:22;3.17;;;1.53;;
8046;SDS011;67150;42.516;23.358;2023-02-28T01:12:09;4.77;;;1.37;;
8046;SDS011;67150;42.516;23.358;2023-02-28T01:14:55;2.20;;;1.50;;
8046;SDS011;67150;42.516;23.358;2023-02-28T01:17:41;2.30;;;1.30;;
8046;SDS011;67150;42.516;23.358;2023-02-28T01:20:26;3.70;;;1.40;;
8046;SDS011;67150;42.516;23.358;2023-02-28T01:23:13;2.27;;;1.40;;
8046;SDS011;67150;42.516;23.358;2023-02-28T01:26:03;4.83;;;1.50;;
8046;SDS011;67150;42.516;23.358;2023-02-28T01:28:51;1.60;;;1.23;;
8046;SDS011;67150;42.516;23.358;2023-02-28T01:31:38;2.90;;;1.50;;
8046;SDS011;67150;42.516;23.358;2023-02-28T01:34:23;3.57;;;1.40;;
8046;SDS011;67150;42.516;23.358;2023-02-28T01:37:09;2.73;;;1.80;;
8046;SDS011;67150;42.516;23.358;2023-02-28T01:39:55;2.07;;;1.27;;
8046;SDS011;67150;42.516;23.358;2023-02-28T01:42:41;1.37;;;1.27;;
8046;SDS011;67150;42.516;23.358;2023-02-28T01:45:29;5.33;;;1.40;;
8046;SDS011;67150;42.516;23.358;2023-02-28T01:48:16;2.90;;;1.50;;
8046;SDS011;67150;42.516;23.358;2023-02-28T01:51:05;3.47;;;1.40;;
8046;SDS011;67150;42.516;23.358;2023-02-28T01:53:55;6.33;;;1.60;;
8046;SDS011;67150;42.516;23.358;2023-02-28T01:56:44;1.90;;;1.33;;
8046;SDS011;67150;42.516;23.358;2023-02-28T01:59:37;3.53;;;1.40;;
8046;SDS011;67150;42.516;23.358;2023-02-28T02:02:31;4.17;;;1.43;;
8046;SDS011;67150;42.516;23.358;2023-02-28T02:05:19;2.43;;;1.47;;
8046;SDS011;67150;42.516;23.358;2023-02-28T02:08:09;4.03;;;1.73;;
8046;SDS011;67150;42.516;23.358;2023-02-28T02:10:58;4.33;;;1.33;;
8046;SDS011;67150;42.516;23.358;2023-02-28T02:13:59;2.30;;;1.30;;
8046;SDS011;67150;42.516;23.358;2023-02-28T02:17:01;2.40;;;1.43;;
8046;SDS011;67150;42.516;23.358;2023-02-28T02:20:18;4.83;;;1.63;;
8046;SDS011;67150;42.516;23.358;2023-02-28T02:23:33;4.40;;;1.30;;
8046;SDS011;67150;42.516;23.358;2023-02-28T02:30:05;3.57;;;1.50;;
8046;SDS011;67150;42.516;23.358;2023-02-28T02:33:23;3.47;;;1.50;;
8046;SDS011;67150;42.516;23.358;2023-02-28T02:36:26;4.37;;;1.60;;
8046;SDS011;67150;42.516;23.358;2023-02-28T02:39:19;2.70;;;1.40;;
8046;SDS011;67150;42.516;23.358;2023-02-28T02:42:15;4.43;;;1.60;;
8046;SDS011;67150;42.516;23.358;2023-02-28T02:45:07;2.33;;;1.37;;
8046;SDS011;67150;42.516;23.358;2023-02-28T02:47:57;7.20;;;1.77;;
8046;SDS011;67150;42.516;23.358;2023-02-28T02:50:45;3.23;;;1.40;;
8046;SDS011;67150;42.516;23.358;2023-02-28T02:53:36;2.77;;;1.60;;
8046;SDS011;67150;42.516;23.358;2023-02-28T02:56:26;4.57;;;1.80;;
8046;SDS011;67150;42.516;23.358;2023-02-28T02:59:16;2.33;;;1.30;;
8046;SDS011;67150;42.516;23.358;2023-02-28T03:02:06;5.83;;;2.23;;
8046;SDS011;67150;42.516;23.358;2023-02-28T03:04:56;4.13;;;1.60;;
8046;SDS011;67150;42.516;23.358;2023-02-28T03:07:46;4.30;;;1.87;;
8046;SDS011;67150;42.516;23.358;2023-02-28T03:10:37;6.13;;;2.13;;
8046;SDS011;67150;42.516;23.358;2023-02-28T03:13:33;7.00;;;2.30;;
8046;SDS011;67150;42.516;23.358;2023-02-28T03:16:46;2.53;;;1.80;;
8046;SDS011;67150;42.516;23.358;2023-02-28T03:19:47;4.37;;;1.70;;
8046;SDS011;67150;42.516;23.358;2023-02-28T03:22:45;5.83;;;2.17;;
8046;SDS011;67150;42.516;23.358;2023-02-28T03:25:41;2.57;;;1.57;;
8046;SDS011;67150;42.516;23.358;2023-02-28T03:28:41;6.07;;;2.20;;
8046;SDS011;67150;42.516;23.358;2023-02-28T03:31:33;6.83;;;1.97;;
8046;SDS011;67150;42.516;23.358;2023-02-28T03:34:25;5.33;;;2.07;;
8046;SDS011;67150;42.516;23.358;2023-02-28T03:37:15;9.13;;;2.37;;
8046;SDS011;67150;42.516;23.358;2023-02-28T03:40:04;5.97;;;1.87;;
8046;SDS011;67150;42.516;23.358;2023-02-28T03:42:59;7.47;;;2.57;;
8046;SDS011;67150;42.516;23.358;2023-02-28T03:45:50;9.97;;;2.63;;
8046;SDS011;67150;42.516;23.358;2023-02-28T03:48:39;6.30;;;2.10;;
8046;SDS011;67150;42.516;23.358;2023-02-28T03:51:28;6.43;;;2.60;;
8046;SDS011;67150;42.516;23.358;2023-02-28T03:54:17;5.93;;;2.10;;
8046;SDS011;67150;42.516;23.358;2023-02-28T03:57:07;4.83;;;2.20;;
8046;SDS011;67150;42.516;23.358;2023-02-28T04:00:02;7.30;;;2.03;;
8046;SDS011;67150;42.516;23.358;2023-02-28T04:02:51;5.60;;;1.93;;
8046;SDS011;67150;42.516;23.358;2023-02-28T04:05:45;4.27;;;2.00;;
8046;SDS011;67150;42.516;23.358;2023-02-28T04:08:34;5.93;;;1.90;;
8046;SDS011;67150;42.516;23.358;2023-02-28T04:11:22;4.17;;;2.07;;
8046;SDS011;67150;42.516;23.358;2023-02-28T04:14:12;4.93;;;1.90;;
8046;SDS011;67150;42.516;23.358;2023-02-28T04:16:59;2.63;;;1.70;;
8046;SDS011;67150;42.516;23.358;2023-02-28T04:19:45;6.20;;;2.10;;
8046;SDS011;67150;42.516;23.358;2023-02-28T04:22:31;4.23;;;1.53;;
8046;SDS011;67150;42.516;23.358;2023-02-28T04:25:17;2.80;;;1.60;;
8046;SDS011;67150;42.516;23.358;2023-02-28T04:28:03;4.73;;;1.80;;
8046;SDS011;67150;42.516;23.358;2023-02-28T04:30:54;4.67;;;2.17;;
8046;SDS011;67150;42.516;23.358;2023-02-28T04:33:42;2.77;;;1.67;;
8046;SDS011;67150;42.516;23.358;2023-02-28T04:36:28;4.23;;;1.70;;
8046;SDS011;67150;42.516;23.358;2023-02-28T04:39:13;4.47;;;1.90;;
8046;SDS011;67150;42.516;23.358;2023-02-28T04:42:01;4.43;;;1.83;;
8046;SDS011;67150;42.516;23.358;2023-02-28T04:44:47;3.27;;;1.67;;
8046;SDS011;67150;42.516;23.358;2023-02-28T04:47:32;3.63;;;1.80;;
8046;SDS011;67150;42.516;23.358;2023-02-28T04:50:20;3.33;;;1.80;;
8046;SDS011;67150;42.516;23.358;2023-02-28T04:53:05;3.33;;;2.00;;
8046;SDS011;67150;42.516;23.358;2023-02-28T04:55:51;5.47;;;2.13;;
8046;SDS011;67150;42.516;23.358;2023-02-28T04:58:37;5.87;;;2.23;;
8046;SDS011;67150;42.516;23.358;2023-02-28T05:01:24;4.73;;;2.13;;
8046;SDS011;67150;42.516;23.358;2023-02-28T05:04:11;8.53;;;2.67;;
8046;SDS011;67150;42.516;23.358;2023-02-28T05:06:58;3.97;;;2.80;;
8046;SDS011;67150;42.516;23.358;2023-02-28T05:09:43;5.83;;;2.63;;
8046;SDS011;67150;42.516;23.358;2023-02-28T05:12:29;7.23;;;3.20;;
8046;SDS011;67150;42.516;23.358;2023-02-28T05:15:15;6.33;;;3.40;;
8046;SDS011;67150;42.516;23.358;2023-02-28T05:18:01;5.90;;;3.40;;
8046;SDS011;67150;42.516;23.358;2023-02-28T05:20:47;13.97;;;4.33;;
8046;SDS011;67150;42.516;23.358;2023-02-28T05:23:35;11.90;;;4.03;;
8046;SDS011;67150;42.516;23.358;2023-02-28T05:26:21;14.67;;;4.60;;
8046;SDS011;67150;42.516;23.358;2023-02-28T05:29:07;9.90;;;4.60;;
8046;SDS011;67150;42.516;23.358;2023-02-28T05:31:53;9.43;;;4.50;;
8046;SDS011;67150;42.516;23.358;2023-02-28T05:34:39;9.83;;;4.57;;
8046;SDS011;67150;42.516;23.358;2023-02-28T05:37:25;8.63;;;4.87;;
8046;SDS011;67150;42.516;23.358;2023-02-28T05:40:13;14.23;;;5.03;;
8046;SDS011;67150;42.516;23.358;2023-02-28T05:42:59;10.03;;;4.97;;
8046;SDS011;67150;42.516;23.358;2023-02-28T05:45:45;9.07;;;4.93;;
8046;SDS011;67150;42.516;23.358;2023-02-28T05:48:31;8.90;;;5.80;;
8046;SDS011;67150;42.516;23.358;2023-02-28T05:51:17;9.70;;;5.70;;
8046;SDS011;67150;42.516;23.358;2023-02-28T05:54:03;12.47;;;5.93;;
8046;SDS011;67150;42.516;23.358;2023-02-28T05:56:50;13.17;;;6.13;;
8046;SDS011;67150;42.516;23.358;2023-02-28T05:59:36;10.60;;;6.33;;
8046;SDS011;67150;42.516;23.358;2023-02-28T06:02:24;9.73;;;6.10;;
8046;SDS011;67150;42.516;23.358;2023-02-28T06:05:10;11.90;;;6.23;;
8046;SDS011;67150;42.516;23.358;2023-02-28T06:07:59;14.83;;;6.33;;
8046;SDS011;67150;42.516;23.358;2023-02-28T06:10:45;10.83;;;6.97;;
8046;SDS011;67150;42.516;23.358;2023-02-28T06:13:32;16.20;;;7.20;;
8046;SDS011;67150;42.516;23.358;2023-02-28T06:16:18;12.17;;;6.87;;
8046;SDS011;67150;42.516;23.358;2023-02-28T06:19:04;13.33;;;7.10;;
8046;SDS011;67150;42.516;23.358;2023-02-28T06:21:49;10.67;;;6.93;;
8046;SDS011;67150;42.516;23.358;2023-02-28T06:24:36;12.83;;;7.50;;
8046;SDS011;67150;42.516;23.358;2023-02-28T06:27:22;13.33;;;7.47;;
8046;SDS011;67150;42.516;23.358;2023-02-28T06:30:10;10.20;;;6.80;;
8046;SDS011;67150;42.516;23.358;2023-02-28T06:32:56;17.20;;;7.47;;
8046;SDS011;67150;42.516;23.358;2023-02-28T06:35:43;14.40;;;7.10;;
8046;SDS011;67150;42.516;23.358;2023-02-28T06:38:28;9.63;;;7.10;;
8046;SDS011;67150;42.516;23.358;2023-02-28T06:41:14;10.13;;;7.20;;
8046;SDS011;67150;42.516;23.358;2023-02-28T06:44:01;10.77;;;7.50;;
8046;SDS011;67150;42.516;23.358;2023-02-28T06:46:48;12.10;;;7.23;;
8046;SDS011;67150;42.516;23.358;2023-02-28T06:49:35;16.37;;;8.37;;
8046;SDS011;67150;42.516;23.358;2023-02-28T06:52:22;11.00;;;7.73;;
8046;SDS011;67150;42.516;23.358;2023-02-28T06:55:08;10.63;;;7.90;;
8046;SDS011;67150;42.516;23.358;2023-02-28T06:57:54;11.87;;;7.67;;
8046;SDS011;67150;42.516;23.358;2023-02-28T07:00:40;15.67;;;8.30;;
8046;SDS011;67150;42.516;23.358;2023-02-28T07:03:27;14.87;;;7.53;;
8046;SDS011;67150;42.516;23.358;2023-02-28T07:06:13;11.73;;;7.50;;
8046;SDS011;67150;42.516;23.358;2023-02-28T07:09:02;8.93;;;7.07;;
8046;SDS011;67150;42.516;23.358;2023-02-28T07:11:49;11.37;;;7.43;;
8046;SDS011;67150;42.516;23.358;2023-02-28T07:14:36;12.10;;;7.70;;
8046;SDS011;67150;42.516;23.358;2023-02-28T07:17:22;10.47;;;7.63;;
8046;SDS011;67150;42.516;23.358;2023-02-28T07:20:10;15.57;;;8.00;;
8046;SDS011;67150;42.516;23.358;2023-02-28T07:22:58;10.37;;;7.57;;
8046;SDS011;67150;42.516;23.358;2023-02-28T07:25:44;11.33;;;7.23;;
8046;SDS011;67150;42.516;23.358;2023-02-28T07:28:29;8.93;;;6.70;;
8046;SDS011;67150;42.516;23.358;2023-02-28T07:31:15;9.27;;;6.43;;
8046;SDS011;67150;42.516;23.358;2023-02-28T07:34:02;11.50;;;6.83;;
8046;SDS011;67150;42.516;23.358;2023-02-28T07:36:51;15.70;;;7.23;;
8046;SDS011;67150;42.516;23.358;2023-02-28T07:39:38;16.03;;;7.77;;
8046;SDS011;67150;42.516;23.358;2023-02-28T07:42:25;13.33;;;7.13;;
8046;SDS011;67150;42.516;23.358;2023-02-28T07:45:15;11.13;;;7.77;;
8046;SDS011;67150;42.516;23.358;2023-02-28T07:48:01;11.83;;;7.03;;
8046;SDS011;67150;42.516;23.358;2023-02-28T07:50:53;11.33;;;7.43;;
8046;SDS011;67150;42.516;23.358;2023-02-28T07:53:41;15.73;;;7.43;;
8046;SDS011;67150;42.516;23.358;2023-02-28T07:56:27;13.17;;;6.60;;
8046;SDS011;67150;42.516;23.358;2023-02-28T07:59:13;11.37;;;6.67;;
8046;SDS011;67150;42.516;23.358;2023-02-28T08:01:59;13.40;;;7.03;;
8046;SDS011;67150;42.516;23.358;2023-02-28T08:04:45;12.43;;;7.00;;
8046;SDS011;67150;42.516;23.358;2023-02-28T08:07:32;12.23;;;7.03;;
8046;SDS011;67150;42.516;23.358;2023-02-28T08:10:19;12.23;;;6.80;;
8046;SDS011;67150;42.516;23.358;2023-02-28T08:13:05;11.40;;;6.53;;
8046;SDS011;67150;42.516;23.358;2023-02-28T08:15:51;12.93;;;6.20;;
8046;SDS011;67150;42.516;23.358;2023-02-28T08:18:37;10.87;;;6.57;;
8046;SDS011;67150;42.516;23.358;2023-02-28T08:21:23;12.30;;;7.07;;
8046;SDS011;67150;42.516;23.358;2023-02-28T08:24:08;10.40;;;6.80;;
8046;SDS011;67150;42.516;23.358;2023-02-28T08:26:56;10.03;;;6.33;;
8046;SDS011;67150;42.516;23.358;2023-02-28T08:29:41;10.13;;;6.37;;
8046;SDS011;67150;42.516;23.358;2023-02-28T08:32:29;11.10;;;6.33;;
8046;SDS011;67150;42.516;23.358;2023-02-28T08:35:15;11.40;;;6.63;;
8046;SDS011;67150;42.516;23.358;2023-02-28T08:38:01;7.47;;;5.97;;
8046;SDS011;67150;42.516;23.358;2023-02-28T08:40:46;10.53;;;6.60;;
8046;SDS011;67150;42.516;23.358;2023-02-28T08:43:34;11.60;;;6.40;;
8046;SDS011;67150;42.516;23.358;2023-02-28T08:46:20;10.07;;;6.00;;
8046;SDS011;67150;42.516;23.358;2023-02-28T08:49:06;8.67;;;5.80;;
8046;SDS011;67150;42.516;23.358;2023-02-28T08:51:53;9.00;;;5.80;;
8046;SDS011;67150;42.516;23.358;2023-02-28T08:54:40;10.07;;;6.30;;
8046;SDS011;67150;42.516;23.358;2023-02-28T08:57:26;7.20;;;5.77;;
8046;SDS011;67150;42.516;23.358;2023-02-28T09:00:14;11.30;;;6.73;;
8046;SDS011;67150;42.516;23.358;2023-02-28T09:03:00;8.70;;;6.30;;
8046;SDS011;67150;42.516;23.358;2023-02-28T09:05:56;11.17;;;6.00;;
8046;SDS011;67150;42.516;23.358;2023-02-28T09:08:43;10.50;;;6.20;;
8046;SDS011;67150;42.516;23.358;2023-02-28T09:11:30;9.77;;;6.10;;
8046;SDS011;67150;42.516;23.358;2023-02-28T09:14:16;9.97;;;6.10;;
8046;SDS011;67150;42.516;23.358;2023-02-28T09:17:03;10.07;;;5.90;;
8046;SDS011;67150;42.516;23.358;2023-02-28T09:19:49;9.67;;;5.77;;
8046;SDS011;67150;42.516;23.358;2023-02-28T09:22:35;11.03;;;6.03;;
8046;SDS011;67150;42.516;23.358;2023-02-28T09:25:21;10.40;;;5.80;;
8046;SDS011;67150;42.516;23.358;2023-02-28T09:28:06;8.03;;;5.30;;
8046;SDS011;67150;42.516;23.358;2023-02-28T09:30:53;10.53;;;5.77;;
8046;SDS011;67150;42.516;23.358;2023-02-28T09:33:42;9.63;;;5.60;;
8046;SDS011;67150;42.516;23.358;2023-02-28T09:36:28;7.67;;;5.50;;
8046;SDS011;67150;42.516;23.358;2023-02-28T09:39:14;9.90;;;5.67;;
8046;SDS011;67150;42.516;23.358;2023-02-28T09:42:00;11.00;;;5.80;;
8046;SDS011;67150;42.516;23.358;2023-02-28T09:44:48;9.80;;;5.73;;
8046;SDS011;67150;42.516;23.358;2023-02-28T09:47:36;9.63;;;5.67;;
8046;SDS011;67150;42.516;23.358;2023-02-28T09:50:30;9.27;;;5.27;;
8046;SDS011;67150;42.516;23.358;2023-02-28T09:53:20;8.33;;;5.17;;
8046;SDS011;67150;42.516;23.358;2023-02-28T09:56:13;8.93;;;5.30;;
8046;SDS011;67150;42.516;23.358;2023-02-28T09:59:11;10.90;;;5.57;;
8046;SDS011;67150;42.516;23.358;2023-02-28T10:02:14;10.13;;;5.47;;
8046;SDS011;67150;42.516;23.358;2023-02-28T10:05:11;7.33;;;5.63;;
8046;SDS011;67150;42.516;23.358;2023-02-28T10:08:05;7.13;;;5.33;;
8046;SDS011;67150;42.516;23.358;2023-02-28T10:10:57;6.50;;;5.47;;
8046;SDS011;67150;42.516;23.358;2023-02-28T10:13:49;6.60;;;5.43;;
8046;SDS011;67150;42.516;23.358;2023-02-28T10:16:40;7.80;;;5.67;;
8046;SDS011;67150;42.516;23.358;2023-02-28T10:19:38;9.30;;;5.70;;
8046;SDS011;67150;42.516;23.358;2023-02-28T10:22:28;7.27;;;5.60;;
8046;SDS011;67150;42.516;23.358;2023-02-28T10:25:20;8.43;;;5.23;;
8046;SDS011;67150;42.516;23.358;2023-02-28T10:28:10;10.70;;;5.70;;
8046;SDS011;67150;42.516;23.358;2023-02-28T10:30:57;9.73;;;6.47;;
8046;SDS011;67150;42.516;23.358;2023-02-28T10:33:43;8.97;;;5.70;;
8046;SDS011;67150;42.516;23.358;2023-02-28T10:36:30;12.03;;;5.60;;
8046;SDS011;67150;42.516;23.358;2023-02-28T10:42:23;12.13;;;5.40;;
8046;SDS011;67150;42.516;23.358;2023-02-28T10:45:11;10.20;;;5.77;;
8046;SDS011;67150;42.516;23.358;2023-02-28T10:47:58;8.70;;;5.37;;
8046;SDS011;67150;42.516;23.358;2023-02-28T10:50:50;11.00;;;5.90;;
8046;SDS011;67150;42.516;23.358;2023-02-28T10:53:45;8.90;;;5.50;;
8046;SDS011;67150;42.516;23.358;2023-02-28T10:56:33;10.23;;;6.10;;
8046;SDS011;67150;42.516;23.358;2023-02-28T10:59:26;7.93;;;5.50;;
8046;SDS011;67150;42.516;23.358;2023-02-28T11:02:28;10.03;;;5.67;;
8046;SDS011;67150;42.516;23.358;2023-02-28T11:05:26;10.03;;;5.67;;
8046;SDS011;67150;42.516;23.358;2023-02-28T11:08:15;11.37;;;5.90;;
8046;SDS011;67150;42.516;23.358;2023-02-28T11:11:03;11.00;;;5.90;;
8046;SDS011;67150;42.516;23.358;2023-02-28T11:13:51;9.10;;;5.60;;
8046;SDS011;67150;42.516;23.358;2023-02-28T11:16:40;8.93;;;5.37;;
8046;SDS011;67150;42.516;23.358;2023-02-28T11:19:31;8.20;;;5.40;;
8046;SDS011;67150;42.516;23.358;2023-02-28T11:22:26;7.23;;;5.57;;
8046;SDS011;67150;42.516;23.358;2023-02-28T11:25:19;9.30;;;5.93;;
8046;SDS011;67150;42.516;23.358;2023-02-28T11:28:23;11.73;;;6.33;;
8046;SDS011;67150;42.516;23.358;2023-02-28T11:31:15;8.53;;;5.80;;
8046;SDS011;67150;42.516;23.358;2023-02-28T11:34:10;10.43;;;6.63;;
8046;SDS011;67150;42.516;23.358;2023-02-28T11:37:12;10.40;;;6.20;;
8046;SDS011;67150;42.516;23.358;2023-02-28T11:40:00;11.50;;;6.50;;
8046;SDS011;67150;42.516;23.358;2023-02-28T11:42:50;8.83;;;6.07;;
8046;SDS011;67150;42.516;23.358;2023-02-28T11:46:01;13.93;;;6.33;;
8046;SDS011;67150;42.516;23.358;2023-02-28T11:48:58;10.17;;;6.47;;
8046;SDS011;67150;42.516;23.358;2023-02-28T11:51:53;10.57;;;6.53;;
8046;SDS011;67150;42.516;23.358;2023-02-28T11:54:53;9.83;;;6.63;;
8046;SDS011;67150;42.516;23.358;2023-02-28T11:57:56;11.30;;;7.10;;
8046;SDS011;67150;42.516;23.358;2023-02-28T12:01:09;9.33;;;6.60;;
8046;SDS011;67150;42.516;23.358;2023-02-28T12:04:11;9.53;;;6.87;;
8046;SDS011;67150;42.516;23.358;2023-02-28T12:07:09;12.23;;;7.07;;
8046;SDS011;67150;42.516;23.358;2023-02-28T12:10:03;11.60;;;6.70;;
8046;SDS011;67150;42.516;23.358;2023-02-28T12:12:59;10.10;;;6.70;;
8046;SDS011;67150;42.516;23.358;2023-02-28T12:15:57;10.70;;;6.80;;
8046;SDS011;67150;42.516;23.358;2023-02-28T12:19:01;11.00;;;6.80;;
8046;SDS011;67150;42.516;23.358;2023-02-28T12:22:03;12.67;;;7.60;;
8046;SDS011;67150;42.516;23.358;2023-02-28T12:25:04;11.23;;;7.10;;
8046;SDS011;67150;42.516;23.358;2023-02-28T12:28:09;10.40;;;6.70;;
8046;SDS011;67150;42.516;23.358;2023-02-28T12:30:59;11.93;;;6.97;;
8046;SDS011;67150;42.516;23.358;2023-02-28T12:33:51;13.60;;;7.50;;
8046;SDS011;67150;42.516;23.358;2023-02-28T12:36:40;10.67;;;7.30;;
8046;SDS011;67150;42.516;23.358;2023-02-28T12:39:31;9.30;;;7.30;;
8046;SDS011;67150;42.516;23.358;2023-02-28T12:42:24;10.77;;;7.17;;
8046;SDS011;67150;42.516;23.358;2023-02-28T12:45:15;10.37;;;7.53;;
8046;SDS011;67150;42.516;23.358;2023-02-28T12:48:05;11.10;;;7.33;;
8046;SDS011;67150;42.516;23.358;2023-02-28T12:50:57;11.57;;;8.13;;
8046;SDS011;67150;42.516;23.358;2023-02-28T12:53:49;14.30;;;7.80;;
8046;SDS011;67150;42.516;23.358;2023-02-28T12:56:44;13.60;;;7.83;;
8046;SDS011;67150;42.516;23.358;2023-02-28T12:59:37;9.73;;;7.60;;
8046;SDS011;67150;42.516;23.358;2023-02-28T13:06:00;9.90;;;7.73;;
8046;SDS011;67150;42.516;23.358;2023-02-28T13:09:04;11.27;;;7.67;;
8046;SDS011;67150;42.516;23.358;2023-02-28T13:11:55;13.10;;;7.70;;
8046;SDS011;67150;42.516;23.358;2023-02-28T13:14:43;11.00;;;7.53;;
8046;SDS011;67150;42.516;23.358;2023-02-28T13:17:29;9.80;;;7.37;;
8046;SDS011;67150;42.516;23.358;2023-02-28T13:20:15;10.47;;;7.70;;
8046;SDS011;67150;42.516;23.358;2023-02-28T13:23:16;11.33;;;7.47;;
8046;SDS011;67150;42.516;23.358;2023-02-28T13:29:44;13.30;;;8.27;;
8046;SDS011;67150;42.516;23.358;2023-02-28T13:32:34;11.87;;;7.80;;
8046;SDS011;67150;42.516;23.358;2023-02-28T13:38:35;12.00;;;7.83;;
8046;SDS011;67150;42.516;23.358;2023-02-28T13:41:43;14.90;;;7.73;;
8046;SDS011;67150;42.516;23.358;2023-02-28T13:44:30;14.77;;;8.70;;
8046;SDS011;67150;42.516;23.358;2023-02-28T13:48:00;14.17;;;8.10;;
8046;SDS011;67150;42.516;23.358;2023-02-28T13:50:46;9.87;;;7.70;;
8046;SDS011;67150;42.516;23.358;2023-02-28T13:53:36;10.77;;;7.30;;
8046;SDS011;67150;42.516;23.358;2023-02-28T13:56:42;10.30;;;7.43;;
8046;SDS011;67150;42.516;23.358;2023-02-28T13:59:35;10.80;;;7.57;;
8046;SDS011;67150;42.516;23.358;2023-02-28T14:02:35;12.37;;;7.90;;
8046;SDS011;67150;42.516;23.358;2023-02-28T14:05:35;11.20;;;7.53;;
8046;SDS011;67150;42.516;23.358;2023-02-28T14:08:22;13.40;;;8.27;;
8046;SDS011;67150;42.516;23.358;2023-02-28T14:11:22;11.00;;;8.13;;
8046;SDS011;67150;42.516;23.358;2023-02-28T14:14:53;12.67;;;8.10;;
8046;SDS011;67150;42.516;23.358;2023-02-28T14:17:35;12.10;;;8.67;;
8046;SDS011;67150;42.516;23.358;2023-02-28T14:20:23;13.73;;;8.33;;
8046;SDS011;67150;42.516;23.358;2023-02-28T14:23:18;13.03;;;8.07;;
8046;SDS011;67150;42.516;23.358;2023-02-28T14:26:21;12.80;;;7.97;;
8046;SDS011;67150;42.516;23.358;2023-02-28T14:29:26;10.00;;;7.83;;
8046;SDS011;67150;42.516;23.358;2023-02-28T14:32:22;11.07;;;7.87;;
8046;SDS011;67150;42.516;23.358;2023-02-28T14:35:20;11.03;;;7.80;;
8046;SDS011;67150;42.516;23.358;2023-02-28T14:38:23;10.63;;;7.50;;
8046;SDS011;67150;42.516;23.358;2023-02-28T14:41:14;12.10;;;7.97;;
8046;SDS011;67150;42.516;23.358;2023-02-28T14:44:13;9.90;;;6.73;;
8046;SDS011;67150;42.516;23.358;2023-02-28T14:47:01;9.83;;;7.63;;
8046;SDS011;67150;42.516;23.358;2023-02-28T14:49:50;12.37;;;8.30;;
8046;SDS011;67150;42.516;23.358;2023-02-28T14:52:36;15.40;;;7.80;;
8046;SDS011;67150;42.516;23.358;2023-02-28T14:55:25;11.23;;;7.20;;
8046;SDS011;67150;42.516;23.358;2023-02-28T14:58:18;10.13;;;7.93;;
8046;SDS011;67150;42.516;23.358;2023-02-28T15:01:09;11.10;;;7.67;;
8046;SDS011;67150;42.516;23.358;2023-02-28T15:04:00;10.67;;;7.70;;
8046;SDS011;67150;42.516;23.358;2023-02-28T15:10:11;10.07;;;7.80;;
8046;SDS011;67150;42.516;23.358;2023-02-28T15:13:04;8.17;;;6.70;;
8046;SDS011;67150;42.516;23.358;2023-02-28T15:15:53;10.27;;;7.13;;
8046;SDS011;67150;42.516;23.358;2023-02-28T15:18:43;10.83;;;7.50;;
8046;SDS011;67150;42.516;23.358;2023-02-28T15:21:34;11.03;;;6.67;;
8046;SDS011;67150;42.516;23.358;2023-02-28T15:24:22;9.90;;;7.53;;
8046;SDS011;67150;42.516;23.358;2023-02-28T15:27:15;10.43;;;6.97;;
8046;SDS011;67150;42.516;23.358;2023-02-28T15:30:14;7.27;;;6.30;;
8046;SDS011;67150;42.516;23.358;2023-02-28T15:33:03;11.97;;;6.60;;
8046;SDS011;67150;42.516;23.358;2023-02-28T15:36:06;10.20;;;7.00;;
8046;SDS011;67150;42.516;23.358;2023-02-28T15:38:56;11.33;;;6.90;;
8046;SDS011;67150;42.516;23.358;2023-02-28T15:41:42;9.43;;;7.10;;
8046;SDS011;67150;42.516;23.358;2023-02-28T15:44:29;9.57;;;7.07;;
8046;SDS011;67150;42.516;23.358;2023-02-28T15:47:21;9.63;;;6.27;;
8046;SDS011;67150;42.516;23.358;2023-02-28T15:50:10;7.87;;;6.00;;
8046;SDS011;67150;42.516;23.358;2023-02-28T15:52:58;9.50;;;6.50;;
8046;SDS011;67150;42.516;23.358;2023-02-28T15:55:51;9.83;;;7.03;;
8046;SDS011;67150;42.516;23.358;2023-02-28T15:58:43;10.47;;;7.10;;
8046;SDS011;67150;42.516;23.358;2023-02-28T16:01:29;7.83;;;6.00;;
8046;SDS011;67150;42.516;23.358;2023-02-28T16:04:19;6.60;;;5.80;;
8046;SDS011;67150;42.516;23.358;2023-02-28T16:07:11;7.77;;;5.67;;
8046;SDS011;67150;42.516;23.358;2023-02-28T16:09:57;6.97;;;5.77;;
8046;SDS011;67150;42.516;23.358;2023-02-28T16:12:43;6.77;;;5.33;;
8046;SDS011;67150;42.516;23.358;2023-02-28T16:15:31;6.90;;;6.10;;
8046;SDS011;67150;42.516;23.358;2023-02-28T16:18:25;6.33;;;5.13;;
8046;SDS011;67150;42.516;23.358;2023-02-28T16:21:12;7.67;;;5.00;;
8046;SDS011;67150;42.516;23.358;2023-02-28T16:23:58;7.00;;;5.60;;
8046;SDS011;67150;42.516;23.358;2023-02-28T16:26:46;7.10;;;5.13;;
8046;SDS011;67150;42.516;23.358;2023-02-28T16:29:34;6.20;;;4.90;;
8046;SDS011;67150;42.516;23.358;2023-02-28T16:32:22;6.80;;;5.47;;
8046;SDS011;67150;42.516;23.358;2023-02-28T16:35:09;6.03;;;4.93;;
8046;SDS011;67150;42.516;23.358;2023-02-28T16:37:57;6.10;;;5.50;;
8046;SDS011;67150;42.516;23.358;2023-02-28T16:40:43;7.87;;;4.83;;
8046;SDS011;67150;42.516;23.358;2023-02-28T16:43:29;5.87;;;4.90;;
8046;SDS011;67150;42.516;23.358;2023-02-28T16:46:16;5.70;;;4.60;;
8046;SDS011;67150;42.516;23.358;2023-02-28T16:49:02;6.63;;;4.93;;
8046;SDS011;67150;42.516;23.358;2023-02-28T16:51:48;4.83;;;4.20;;
8046;SDS011;67150;42.516;23.358;2023-02-28T16:54:35;4.97;;;4.47;;
8046;SDS011;67150;42.516;23.358;2023-02-28T16:57:21;5.10;;;4.60;;
8046;SDS011;67150;42.516;23.358;2023-02-28T17:00:11;5.53;;;4.40;;
8046;SDS011;67150;42.516;23.358;2023-02-28T17:02:58;4.37;;;3.97;;
8046;SDS011;67150;42.516;23.358;2023-02-28T17:05:45;4.47;;;4.07;;
8046;SDS011;67150;42.516;23.358;2023-02-28T17:08:31;4.97;;;3.80;;
8046;SDS011;67150;42.516;23.358;2023-02-28T17:11:19;4.77;;;4.20;;
8046;SDS011;67150;42.516;23.358;2023-02-28T17:14:05;4.43;;;4.03;;
8046;SDS011;67150;42.516;23.358;2023-02-28T17:16:51;4.37;;;3.97;;
8046;SDS011;67150;42.516;23.358;2023-02-28T17:19:37;5.03;;;4.20;;
8046;SDS011;67150;42.516;23.358;2023-02-28T17:22:26;4.33;;;3.93;;